PAFR METAR and TAF weather

Enter ICAO airport designator
Station Type Date Time Source
PAFR METAR 2020/04/02 00:58 UTC NOAA

PAFR 020058Z AUTO 31006KT 7SM FEW028 BKN036 OVC047 02/M11 A3030 RMK AO2 SLP272 T00191110 $


Station Type Date Time Source
PAFR Decoded METAR 2020/04/02 00:58 UTC NOAA

Ft. Richardson / Bryant U. S. Army Heliport, Ak, AK, United States (PAFR) 61-16N 149-39W 115M
Apr 01, 2020 - 08:58 PM EDT / 2020.04.02 0058 UTC
Wind: from the NW (310 degrees) at 7 MPH (6 KT):0
Visibility: 7 mile(s):0
Sky conditions: overcast
Temperature: 35.4 F (1.9 C)
Dew Point: 12.2 F (-11.0 C)
Relative Humidity: 37%
Pressure (altimeter): 30.3 in. Hg (1026 hPa)
ob: PAFR 020058Z AUTO 31006KT 7SM FEW028 BKN036 OVC047 02/M11 A3030 RMK AO2 SLP272 T00191110
cycle: 1

Station Type Date Time Source
PAFR TAF UTC NOAA

Error!

Example: see airport list